sensor_id;sensor_type;location;lat;lon;timestamp;temperature;humidity
1129;DHT22;553;51.038;7.216;2023-04-30T00:02:00;9.90;99.90
1129;DHT22;553;51.038;7.216;2023-04-30T00:04:26;9.90;99.90
1129;DHT22;553;51.038;7.216;2023-04-30T00:06:53;9.80;99.90
1129;DHT22;553;51.038;7.216;2023-04-30T00:09:21;9.80;99.90
1129;DHT22;553;51.038;7.216;2023-04-30T00:11:47;9.80;99.90
1129;DHT22;553;51.038;7.216;2023-04-30T00:14:14;9.80;99.90
1129;DHT22;553;51.038;7.216;2023-04-30T00:16:41;9.80;99.90
1129;DHT22;553;51.038;7.216;2023-04-30T00:19:08;9.80;99.90
1129;DHT22;553;51.038;7.216;2023-04-30T00:21:34;9.80;99.90
1129;DHT22;553;51.038;7.216;2023-04-30T00:24:01;9.70;99.90
1129;DHT22;553;51.038;7.216;2023-04-30T00:26:29;9.70;99.90
1129;DHT22;553;51.038;7.216;2023-04-30T00:28:56;9.70;99.90
1129;DHT22;553;51.038;7.216;2023-04-30T00:31:22;9.70;99.90
1129;DHT22;553;51.038;7.216;2023-04-30T00:33:49;9.80;99.90
1129;DHT22;553;51.038;7.216;2023-04-30T00:36:17;9.80;99.90
1129;DHT22;553;51.038;7.216;2023-04-30T00:38:43;9.70;99.90
1129;DHT22;553;51.038;7.216;2023-04-30T00:41:10;9.70;99.90
1129;DHT22;553;51.038;7.216;2023-04-30T00:43:37;9.60;99.90
1129;DHT22;553;51.038;7.216;2023-04-30T00:46:04;9.60;99.90
1129;DHT22;553;51.038;7.216;2023-04-30T00:48:32;9.60;99.90
1129;DHT22;553;51.038;7.216;2023-04-30T00:51:01;9.50;99.90
1129;DHT22;553;51.038;7.216;2023-04-30T00:53:30;9.40;99.90
1129;DHT22;553;51.038;7.216;2023-04-30T00:55:57;9.40;99.90
1129;DHT22;553;51.038;7.216;2023-04-30T00:58:24;9.40;99.90
1129;DHT22;553;51.038;7.216;2023-04-30T01:00:51;9.30;99.90
1129;DHT22;553;51.038;7.216;2023-04-30T01:03:18;9.30;99.90
1129;DHT22;553;51.038;7.216;2023-04-30T01:05:45;9.20;99.90
1129;DHT22;553;51.038;7.216;2023-04-30T01:08:12;9.20;99.90
1129;DHT22;553;51.038;7.216;2023-04-30T01:10:55;9.10;99.90
1129;DHT22;553;51.038;7.216;2023-04-30T01:13:40;9.10;99.90
1129;DHT22;553;51.038;7.216;2023-04-30T01:16:25;9.00;99.90
1129;DHT22;553;51.038;7.216;2023-04-30T01:18:59;9.00;99.90
1129;DHT22;553;51.038;7.216;2023-04-30T01:21:29;9.00;99.90
1129;DHT22;553;51.038;7.216;2023-04-30T01:29:28;9.00;99.90
1129;DHT22;553;51.038;7.216;2023-04-30T01:31:55;9.00;99.90
1129;DHT22;553;51.038;7.216;2023-04-30T01:34:22;9.00;99.90
1129;DHT22;553;51.038;7.216;2023-04-30T01:37:02;9.00;99.90
1129;DHT22;553;51.038;7.216;2023-04-30T01:39:56;9.00;99.90
1129;DHT22;553;51.038;7.216;2023-04-30T01:42:41;9.00;99.90
1129;DHT22;553;51.038;7.216;2023-04-30T01:50:51;9.00;99.90
1129;DHT22;553;51.038;7.216;2023-04-30T01:53:32;9.00;99.90
1129;DHT22;553;51.038;7.216;2023-04-30T01:56:02;9.00;99.90
1129;DHT22;553;51.038;7.216;2023-04-30T01:58:31;9.00;99.90
1129;DHT22;553;51.038;7.216;2023-04-30T02:00:57;8.90;99.90
1129;DHT22;553;51.038;7.216;2023-04-30T02:03:24;8.90;99.90
1129;DHT22;553;51.038;7.216;2023-04-30T02:05:52;8.90;99.90
1129;DHT22;553;51.038;7.216;2023-04-30T02:08:19;8.80;99.90
1129;DHT22;553;51.038;7.216;2023-04-30T02:10:46;8.70;99.90
1129;DHT22;553;51.038;7.216;2023-04-30T02:13:13;8.70;99.90
1129;DHT22;553;51.038;7.216;2023-04-30T02:15:39;8.60;99.90
1129;DHT22;553;51.038;7.216;2023-04-30T02:18:06;8.60;99.90
1129;DHT22;553;51.038;7.216;2023-04-30T02:20:33;8.50;99.90
1129;DHT22;553;51.038;7.216;2023-04-30T02:22:59;8.50;99.90
1129;DHT22;553;51.038;7.216;2023-04-30T02:25:26;8.50;99.90
1129;DHT22;553;51.038;7.216;2023-04-30T02:27:53;8.50;99.90
1129;DHT22;553;51.038;7.216;2023-04-30T02:30:19;8.50;99.90
1129;DHT22;553;51.038;7.216;2023-04-30T02:32:46;8.50;99.90
1129;DHT22;553;51.038;7.216;2023-04-30T02:35:13;8.50;99.90
1129;DHT22;553;51.038;7.216;2023-04-30T02:37:40;8.50;99.90
1129;DHT22;553;51.038;7.216;2023-04-30T02:40:07;8.50;99.90
1129;DHT22;553;51.038;7.216;2023-04-30T02:42:34;8.40;99.90
1129;DHT22;553;51.038;7.216;2023-04-30T02:45:02;8.40;99.90
1129;DHT22;553;51.038;7.216;2023-04-30T02:47:29;8.40;99.90
1129;DHT22;553;51.038;7.216;2023-04-30T02:49:56;8.50;99.90
1129;DHT22;553;51.038;7.216;2023-04-30T02:52:23;8.50;99.90
1129;DHT22;553;51.038;7.216;2023-04-30T02:54:50;8.50;99.90
1129;DHT22;553;51.038;7.216;2023-04-30T02:57:17;8.40;99.90
1129;DHT22;553;51.038;7.216;2023-04-30T02:59:44;8.40;99.90
1129;DHT22;553;51.038;7.216;2023-04-30T03:02:11;8.30;99.90
1129;DHT22;553;51.038;7.216;2023-04-30T03:04:39;8.30;99.90
1129;DHT22;553;51.038;7.216;2023-04-30T03:07:06;8.30;99.90
1129;DHT22;553;51.038;7.216;2023-04-30T03:09:33;8.30;99.90
1129;DHT22;553;51.038;7.216;2023-04-30T03:12:00;8.30;99.90
1129;DHT22;553;51.038;7.216;2023-04-30T03:14:28;8.20;99.90
1129;DHT22;553;51.038;7.216;2023-04-30T03:16:55;8.20;99.90
1129;DHT22;553;51.038;7.216;2023-04-30T03:19:21;8.20;99.90
1129;DHT22;553;51.038;7.216;2023-04-30T03:21:51;8.20;99.90
1129;DHT22;553;51.038;7.216;2023-04-30T03:24:18;8.10;99.90
1129;DHT22;553;51.038;7.216;2023-04-30T03:26:45;8.10;99.90
1129;DHT22;553;51.038;7.216;2023-04-30T03:29:12;8.20;99.90
1129;DHT22;553;51.038;7.216;2023-04-30T03:31:39;8.20;99.90
1129;DHT22;553;51.038;7.216;2023-04-30T03:34:05;8.20;99.90
1129;DHT22;553;51.038;7.216;2023-04-30T03:36:32;8.20;99.90
1129;DHT22;553;51.038;7.216;2023-04-30T03:39:00;8.10;99.90
1129;DHT22;553;51.038;7.216;2023-04-30T03:41:27;8.10;99.90
1129;DHT22;553;51.038;7.216;2023-04-30T03:43:53;8.00;99.90
1129;DHT22;553;51.038;7.216;2023-04-30T03:46:20;7.90;99.90
1129;DHT22;553;51.038;7.216;2023-04-30T03:48:47;7.90;99.90
1129;DHT22;553;51.038;7.216;2023-04-30T03:51:14;7.90;99.90
1129;DHT22;553;51.038;7.216;2023-04-30T03:53:41;7.90;99.90
1129;DHT22;553;51.038;7.216;2023-04-30T03:56:07;7.80;99.90
1129;DHT22;553;51.038;7.216;2023-04-30T03:58:34;7.80;99.90
1129;DHT22;553;51.038;7.216;2023-04-30T04:01:01;7.80;99.90
1129;DHT22;553;51.038;7.216;2023-04-30T04:03:27;7.80;99.90
1129;DHT22;553;51.038;7.216;2023-04-30T04:05:54;7.80;99.90
1129;DHT22;553;51.038;7.216;2023-04-30T04:08:21;7.80;99.90
1129;DHT22;553;51.038;7.216;2023-04-30T04:10:48;7.90;99.90
1129;DHT22;553;51.038;7.216;2023-04-30T04:13:14;7.80;99.90
1129;DHT22;553;51.038;7.216;2023-04-30T04:15:41;7.90;99.90
1129;DHT22;553;51.038;7.216;2023-04-30T04:18:08;7.80;99.90
1129;DHT22;553;51.038;7.216;2023-04-30T04:20:35;7.90;99.90
1129;DHT22;553;51.038;7.216;2023-04-30T04:23:02;7.90;99.90
1129;DHT22;553;51.038;7.216;2023-04-30T04:25:28;7.90;99.90
1129;DHT22;553;51.038;7.216;2023-04-30T04:27:55;7.90;99.90
1129;DHT22;553;51.038;7.216;2023-04-30T04:30:22;7.90;99.90
1129;DHT22;553;51.038;7.216;2023-04-30T04:32:49;7.90;99.90
1129;DHT22;553;51.038;7.216;2023-04-30T04:35:19;7.90;99.90
1129;DHT22;553;51.038;7.216;2023-04-30T04:37:46;7.90;99.90
1129;DHT22;553;51.038;7.216;2023-04-30T04:40:13;8.00;99.90
1129;DHT22;553;51.038;7.216;2023-04-30T04:42:40;8.00;99.90
1129;DHT22;553;51.038;7.216;2023-04-30T04:45:07;8.10;99.90
1129;DHT22;553;51.038;7.216;2023-04-30T04:47:35;8.10;99.90
1129;DHT22;553;51.038;7.216;2023-04-30T04:50:02;8.10;99.90
1129;DHT22;553;51.038;7.216;2023-04-30T04:52:29;8.10;99.90
1129;DHT22;553;51.038;7.216;2023-04-30T04:54:56;8.10;99.90
1129;DHT22;553;51.038;7.216;2023-04-30T04:57:23;8.10;99.90
1129;DHT22;553;51.038;7.216;2023-04-30T04:59:49;8.10;99.90
1129;DHT22;553;51.038;7.216;2023-04-30T05:02:16;8.10;99.90
1129;DHT22;553;51.038;7.216;2023-04-30T05:04:43;8.10;99.90
1129;DHT22;553;51.038;7.216;2023-04-30T05:07:09;8.20;99.90
1129;DHT22;553;51.038;7.216;2023-04-30T05:09:36;8.20;99.90
1129;DHT22;553;51.038;7.216;2023-04-30T05:12:03;8.20;99.90
1129;DHT22;553;51.038;7.216;2023-04-30T05:14:30;8.30;99.90
1129;DHT22;553;51.038;7.216;2023-04-30T05:16:57;8.30;99.90
1129;DHT22;553;51.038;7.216;2023-04-30T05:19:23;8.30;99.90
1129;DHT22;553;51.038;7.216;2023-04-30T05:21:50;8.30;99.90
1129;DHT22;553;51.038;7.216;2023-04-30T05:24:17;8.30;99.90
1129;DHT22;553;51.038;7.216;2023-04-30T05:26:43;8.40;99.90
1129;DHT22;553;51.038;7.216;2023-04-30T05:29:10;8.50;99.90
1129;DHT22;553;51.038;7.216;2023-04-30T05:31:37;8.50;99.90
1129;DHT22;553;51.038;7.216;2023-04-30T05:34:04;8.50;99.90
1129;DHT22;553;51.038;7.216;2023-04-30T05:36:31;8.60;99.90
1129;DHT22;553;51.038;7.216;2023-04-30T05:38:58;8.60;99.90
1129;DHT22;553;51.038;7.216;2023-04-30T05:41:24;8.70;99.90
1129;DHT22;553;51.038;7.216;2023-04-30T05:43:51;8.80;99.90
1129;DHT22;553;51.038;7.216;2023-04-30T05:46:18;8.80;99.90
1129;DHT22;553;51.038;7.216;2023-04-30T05:48:45;8.80;99.90
1129;DHT22;553;51.038;7.216;2023-04-30T05:51:11;8.90;99.90
1129;DHT22;553;51.038;7.216;2023-04-30T05:53:38;9.10;99.90
1129;DHT22;553;51.038;7.216;2023-04-30T05:56:05;9.30;99.90
1129;DHT22;553;51.038;7.216;2023-04-30T05:58:32;9.50;99.90
1129;DHT22;553;51.038;7.216;2023-04-30T06:00:59;9.80;99.90
1129;DHT22;553;51.038;7.216;2023-04-30T06:03:25;10.00;99.90
1129;DHT22;553;51.038;7.216;2023-04-30T06:05:53;10.30;99.90
1129;DHT22;553;51.038;7.216;2023-04-30T06:08:19;10.70;99.90
1129;DHT22;553;51.038;7.216;2023-04-30T06:10:46;11.00;99.90
1129;DHT22;553;51.038;7.216;2023-04-30T06:13:13;11.30;99.90
1129;DHT22;553;51.038;7.216;2023-04-30T06:15:40;11.50;99.90
1129;DHT22;553;51.038;7.216;2023-04-30T06:18:07;11.90;99.90
1129;DHT22;553;51.038;7.216;2023-04-30T06:20:33;12.30;99.50
1129;DHT22;553;51.038;7.216;2023-04-30T06:23:00;12.60;99.10
1129;DHT22;553;51.038;7.216;2023-04-30T06:25:28;12.80;97.50
1129;DHT22;553;51.038;7.216;2023-04-30T06:27:54;13.20;96.90
1129;DHT22;553;51.038;7.216;2023-04-30T06:30:21;13.40;94.90
1129;DHT22;553;51.038;7.216;2023-04-30T06:32:48;13.60;94.70
1129;DHT22;553;51.038;7.216;2023-04-30T06:35:15;13.80;93.50
1129;DHT22;553;51.038;7.216;2023-04-30T06:37:41;14.00;93.20
1129;DHT22;553;51.038;7.216;2023-04-30T06:40:08;14.20;92.60
1129;DHT22;553;51.038;7.216;2023-04-30T06:42:35;14.30;92.50
1129;DHT22;553;51.038;7.216;2023-04-30T06:45:02;14.50;91.10
1129;DHT22;553;51.038;7.216;2023-04-30T06:47:30;14.70;90.50
1129;DHT22;553;51.038;7.216;2023-04-30T06:50:00;14.80;90.40
1129;DHT22;553;51.038;7.216;2023-04-30T06:52:27;15.10;89.90
1129;DHT22;553;51.038;7.216;2023-04-30T06:54:54;15.10;89.60
1129;DHT22;553;51.038;7.216;2023-04-30T06:57:21;15.30;89.10
1129;DHT22;553;51.038;7.216;2023-04-30T06:59:47;15.00;89.30
1129;DHT22;553;51.038;7.216;2023-04-30T07:02:14;15.40;90.00
1129;DHT22;553;51.038;7.216;2023-04-30T07:04:41;15.70;88.50
1129;DHT22;553;51.038;7.216;2023-04-30T07:07:08;16.00;88.70
1129;DHT22;553;51.038;7.216;2023-04-30T07:09:35;16.00;86.60
1129;DHT22;553;51.038;7.216;2023-04-30T07:12:02;16.30;87.60
1129;DHT22;553;51.038;7.216;2023-04-30T07:14:29;16.50;86.40
1129;DHT22;553;51.038;7.216;2023-04-30T07:16:56;16.70;85.10
1129;DHT22;553;51.038;7.216;2023-04-30T07:19:22;16.80;84.50
1129;DHT22;553;51.038;7.216;2023-04-30T07:21:50;17.00;84.30
1129;DHT22;553;51.038;7.216;2023-04-30T07:24:17;17.10;84.70
1129;DHT22;553;51.038;7.216;2023-04-30T07:26:44;17.20;83.90
1129;DHT22;553;51.038;7.216;2023-04-30T07:29:10;17.40;83.40
1129;DHT22;553;51.038;7.216;2023-04-30T07:31:37;17.60;82.90
1129;DHT22;553;51.038;7.216;2023-04-30T07:34:04;17.60;82.60
1129;DHT22;553;51.038;7.216;2023-04-30T07:36:30;17.60;82.30
1129;DHT22;553;51.038;7.216;2023-04-30T07:38:58;17.60;82.20
1129;DHT22;553;51.038;7.216;2023-04-30T07:41:24;17.70;82.20
1129;DHT22;553;51.038;7.216;2023-04-30T07:43:51;17.80;82.20
1129;DHT22;553;51.038;7.216;2023-04-30T07:46:18;17.60;83.30
1129;DHT22;553;51.038;7.216;2023-04-30T07:48:45;18.00;83.00
1129;DHT22;553;51.038;7.216;2023-04-30T07:51:12;18.10;81.10
1129;DHT22;553;51.038;7.216;2023-04-30T07:53:38;18.30;80.90
1129;DHT22;553;51.038;7.216;2023-04-30T07:56:05;18.30;79.70
1129;DHT22;553;51.038;7.216;2023-04-30T07:58:33;18.20;79.40
1129;DHT22;553;51.038;7.216;2023-04-30T08:00:59;18.20;79.30
1129;DHT22;553;51.038;7.216;2023-04-30T08:03:26;18.50;81.00
1129;DHT22;553;51.038;7.216;2023-04-30T08:05:53;18.70;78.40
1129;DHT22;553;51.038;7.216;2023-04-30T08:08:20;18.90;78.30
1129;DHT22;553;51.038;7.216;2023-04-30T08:10:46;18.70;77.10
1129;DHT22;553;51.038;7.216;2023-04-30T08:13:13;18.40;77.60
1129;DHT22;553;51.038;7.216;2023-04-30T08:15:40;18.50;79.30
1129;DHT22;553;51.038;7.216;2023-04-30T08:18:08;18.90;78.60
1129;DHT22;553;51.038;7.216;2023-04-30T08:20:35;19.10;77.60
1129;DHT22;553;51.038;7.216;2023-04-30T08:23:04;19.00;75.80
1129;DHT22;553;51.038;7.216;2023-04-30T08:25:31;18.90;76.60
1129;DHT22;553;51.038;7.216;2023-04-30T08:27:58;18.60;77.20
1129;DHT22;553;51.038;7.216;2023-04-30T08:30:25;18.80;77.20
1129;DHT22;553;51.038;7.216;2023-04-30T08:32:51;18.90;78.50
1129;DHT22;553;51.038;7.216;2023-04-30T08:35:22;18.90;76.50
1129;DHT22;553;51.038;7.216;2023-04-30T08:37:49;18.90;76.30
1129;DHT22;553;51.038;7.216;2023-04-30T08:40:15;18.90;77.80
1129;DHT22;553;51.038;7.216;2023-04-30T08:42:45;19.10;76.00
1129;DHT22;553;51.038;7.216;2023-04-30T08:45:15;18.70;76.60
1129;DHT22;553;51.038;7.216;2023-04-30T08:47:44;18.70;77.20
1129;DHT22;553;51.038;7.216;2023-04-30T08:50:11;18.90;76.20
1129;DHT22;553;51.038;7.216;2023-04-30T08:52:38;19.30;75.80
1129;DHT22;553;51.038;7.216;2023-04-30T08:55:08;19.40;75.30
1129;DHT22;553;51.038;7.216;2023-04-30T08:57:36;19.30;77.20
1129;DHT22;553;51.038;7.216;2023-04-30T09:00:04;19.50;76.10
1129;DHT22;553;51.038;7.216;2023-04-30T09:02:33;19.60;75.20
1129;DHT22;553;51.038;7.216;2023-04-30T09:05:00;19.70;74.90
1129;DHT22;553;51.038;7.216;2023-04-30T09:07:30;19.70;74.00
1129;DHT22;553;51.038;7.216;2023-04-30T09:09:57;19.50;74.40
1129;DHT22;553;51.038;7.216;2023-04-30T09:12:26;19.60;74.70
1129;DHT22;553;51.038;7.216;2023-04-30T09:15:03;19.40;75.70
1129;DHT22;553;51.038;7.216;2023-04-30T09:17:31;19.60;70.70
1129;DHT22;553;51.038;7.216;2023-04-30T09:20:10;19.50;71.70
1129;DHT22;553;51.038;7.216;2023-04-30T09:22:39;19.40;72.20
1129;DHT22;553;51.038;7.216;2023-04-30T09:25:07;19.50;72.40
1129;DHT22;553;51.038;7.216;2023-04-30T09:27:34;19.60;71.20
1129;DHT22;553;51.038;7.216;2023-04-30T09:30:00;19.80;71.30
1129;DHT22;553;51.038;7.216;2023-04-30T09:32:27;20.10;72.90
1129;DHT22;553;51.038;7.216;2023-04-30T09:34:54;20.10;72.10
1129;DHT22;553;51.038;7.216;2023-04-30T09:37:21;19.60;72.30
1129;DHT22;553;51.038;7.216;2023-04-30T09:40:00;19.20;73.40
1129;DHT22;553;51.038;7.216;2023-04-30T09:42:26;19.30;75.30
1129;DHT22;553;51.038;7.216;2023-04-30T09:44:53;19.50;74.20
1129;DHT22;553;51.038;7.216;2023-04-30T09:47:20;19.40;74.70
1129;DHT22;553;51.038;7.216;2023-04-30T09:49:48;19.30;75.10
1129;DHT22;553;51.038;7.216;2023-04-30T09:52:19;19.20;74.10
1129;DHT22;553;51.038;7.216;2023-04-30T09:54:46;19.00;74.20
1129;DHT22;553;51.038;7.216;2023-04-30T09:57:14;19.10;76.50
1129;DHT22;553;51.038;7.216;2023-04-30T09:59:45;19.20;76.00
1129;DHT22;553;51.038;7.216;2023-04-30T10:02:15;19.50;76.50
1129;DHT22;553;51.038;7.216;2023-04-30T10:04:43;19.70;75.50
1129;DHT22;553;51.038;7.216;2023-04-30T10:07:19;19.50;73.10
1129;DHT22;553;51.038;7.216;2023-04-30T10:09:49;19.20;73.40
1129;DHT22;553;51.038;7.216;2023-04-30T10:12:21;19.20;74.10
1129;DHT22;553;51.038;7.216;2023-04-30T10:15:02;19.10;73.90
1129;DHT22;553;51.038;7.216;2023-04-30T10:17:33;19.00;74.00
1129;DHT22;553;51.038;7.216;2023-04-30T10:20:08;18.90;75.40
1129;DHT22;553;51.038;7.216;2023-04-30T10:22:37;18.80;75.60
1129;DHT22;553;51.038;7.216;2023-04-30T10:25:04;18.70;75.50
1129;DHT22;553;51.038;7.216;2023-04-30T10:27:33;18.70;75.80
1129;DHT22;553;51.038;7.216;2023-04-30T10:30:00;18.80;74.70
1129;DHT22;553;51.038;7.216;2023-04-30T10:32:43;18.80;74.80
1129;DHT22;553;51.038;7.216;2023-04-30T10:35:18;19.00;75.10
1129;DHT22;553;51.038;7.216;2023-04-30T10:37:58;19.40;74.90
1129;DHT22;553;51.038;7.216;2023-04-30T10:40:26;19.40;73.00
1129;DHT22;553;51.038;7.216;2023-04-30T10:42:53;19.30;73.50
1129;DHT22;553;51.038;7.216;2023-04-30T10:45:34;19.30;74.10
1129;DHT22;553;51.038;7.216;2023-04-30T10:48:05;19.40;73.30
1129;DHT22;553;51.038;7.216;2023-04-30T10:50:32;19.30;74.00
1129;DHT22;553;51.038;7.216;2023-04-30T10:53:05;19.10;73.30
1129;DHT22;553;51.038;7.216;2023-04-30T10:55:32;19.10;73.80
1129;DHT22;553;51.038;7.216;2023-04-30T10:57:59;19.10;72.70
1129;DHT22;553;51.038;7.216;2023-04-30T11:00:27;19.10;73.20
1129;DHT22;553;51.038;7.216;2023-04-30T11:03:01;18.90;72.90
1129;DHT22;553;51.038;7.216;2023-04-30T11:05:36;18.90;73.00
1129;DHT22;553;51.038;7.216;2023-04-30T11:08:04;18.80;72.20
1129;DHT22;553;51.038;7.216;2023-04-30T11:10:33;18.60;71.60
1129;DHT22;553;51.038;7.216;2023-04-30T11:13:04;18.80;73.20
1129;DHT22;553;51.038;7.216;2023-04-30T11:15:39;18.80;73.40
1129;DHT22;553;51.038;7.216;2023-04-30T11:18:07;18.70;72.60
1129;DHT22;553;51.038;7.216;2023-04-30T11:20:39;18.70;73.60
1129;DHT22;553;51.038;7.216;2023-04-30T11:23:12;18.90;72.80
1129;DHT22;553;51.038;7.216;2023-04-30T11:25:53;18.90;71.50
1129;DHT22;553;51.038;7.216;2023-04-30T11:28:23;18.80;71.70
1129;DHT22;553;51.038;7.216;2023-04-30T11:30:52;18.70;71.10
1129;DHT22;553;51.038;7.216;2023-04-30T11:33:20;18.80;71.70
1129;DHT22;553;51.038;7.216;2023-04-30T11:35:48;18.80;72.70
1129;DHT22;553;51.038;7.216;2023-04-30T11:38:21;18.70;72.40
1129;DHT22;553;51.038;7.216;2023-04-30T11:40:48;18.70;72.00
1129;DHT22;553;51.038;7.216;2023-04-30T11:43:26;18.80;71.70
1129;DHT22;553;51.038;7.216;2023-04-30T11:46:14;18.90;72.30
1129;DHT22;553;51.038;7.216;2023-04-30T11:48:44;18.90;72.80
1129;DHT22;553;51.038;7.216;2023-04-30T11:51:19;18.90;73.60
1129;DHT22;553;51.038;7.216;2023-04-30T11:53:50;18.90;72.10
1129;DHT22;553;51.038;7.216;2023-04-30T11:56:21;18.60;71.00
1129;DHT22;553;51.038;7.216;2023-04-30T11:58:51;18.50;71.70
1129;DHT22;553;51.038;7.216;2023-04-30T12:01:18;18.60;73.20
1129;DHT22;553;51.038;7.216;2023-04-30T12:03:47;18.80;72.80
1129;DHT22;553;51.038;7.216;2023-04-30T12:06:26;19.00;72.40
1129;DHT22;553;51.038;7.216;2023-04-30T12:08:57;18.90;71.70
1129;DHT22;553;51.038;7.216;2023-04-30T12:11:26;18.90;72.00
1129;DHT22;553;51.038;7.216;2023-04-30T12:14:03;18.90;72.10
1129;DHT22;553;51.038;7.216;2023-04-30T12:16:40;19.00;71.20
1129;DHT22;553;51.038;7.216;2023-04-30T12:19:08;19.20;72.00
1129;DHT22;553;51.038;7.216;2023-04-30T12:21:35;19.30;70.80
1129;DHT22;553;51.038;7.216;2023-04-30T12:24:02;19.40;70.40
1129;DHT22;553;51.038;7.216;2023-04-30T12:26:36;19.20;70.90
1129;DHT22;553;51.038;7.216;2023-04-30T12:29:07;19.20;71.70
1129;DHT22;553;51.038;7.216;2023-04-30T12:31:36;19.10;70.10
1129;DHT22;553;51.038;7.216;2023-04-30T12:34:05;19.10;70.10
1129;DHT22;553;51.038;7.216;2023-04-30T12:36:33;19.20;71.10
1129;DHT22;553;51.038;7.216;2023-04-30T12:39:06;19.10;70.40
1129;DHT22;553;51.038;7.216;2023-04-30T12:41:45;19.20;70.60
1129;DHT22;553;51.038;7.216;2023-04-30T12:44:19;19.30;71.10
1129;DHT22;553;51.038;7.216;2023-04-30T12:46:47;19.40;70.70
1129;DHT22;553;51.038;7.216;2023-04-30T12:49:29;19.50;70.20
1129;DHT22;553;51.038;7.216;2023-04-30T12:52:09;19.40;71.10
1129;DHT22;553;51.038;7.216;2023-04-30T12:54:38;19.20;72.00
1129;DHT22;553;51.038;7.216;2023-04-30T12:57:07;18.90;70.90
1129;DHT22;553;51.038;7.216;2023-04-30T13:02:10;18.90;71.30
1129;DHT22;553;51.038;7.216;2023-04-30T13:04:42;19.00;71.70
1129;DHT22;553;51.038;7.216;2023-04-30T13:07:09;19.20;71.30
1129;DHT22;553;51.038;7.216;2023-04-30T13:09:37;19.30;69.30
1129;DHT22;553;51.038;7.216;2023-04-30T13:12:04;19.40;69.00
1129;DHT22;553;51.038;7.216;2023-04-30T13:14:32;19.40;68.90
1129;DHT22;553;51.038;7.216;2023-04-30T13:16:59;19.50;68.60
1129;DHT22;553;51.038;7.216;2023-04-30T13:19:26;19.60;70.10
1129;DHT22;553;51.038;7.216;2023-04-30T13:21:54;19.50;70.20
1129;DHT22;553;51.038;7.216;2023-04-30T13:24:21;19.50;70.70
1129;DHT22;553;51.038;7.216;2023-04-30T13:26:48;19.40;70.40
1129;DHT22;553;51.038;7.216;2023-04-30T13:29:15;19.50;71.00
1129;DHT22;553;51.038;7.216;2023-04-30T13:31:41;19.60;70.60
1129;DHT22;553;51.038;7.216;2023-04-30T13:34:08;19.70;69.80
1129;DHT22;553;51.038;7.216;2023-04-30T13:36:35;19.90;70.50
1129;DHT22;553;51.038;7.216;2023-04-30T13:39:02;20.00;70.20
1129;DHT22;553;51.038;7.216;2023-04-30T13:41:30;20.20;69.30
1129;DHT22;553;51.038;7.216;2023-04-30T13:43:56;20.10;70.60
1129;DHT22;553;51.038;7.216;2023-04-30T13:46:25;20.20;69.80
1129;DHT22;553;51.038;7.216;2023-04-30T13:48:52;20.00;69.20
1129;DHT22;553;51.038;7.216;2023-04-30T13:51:19;19.90;69.10
1129;DHT22;553;51.038;7.216;2023-04-30T13:53:45;19.90;68.20
1129;DHT22;553;51.038;7.216;2023-04-30T13:56:12;19.80;68.10
1129;DHT22;553;51.038;7.216;2023-04-30T13:58:40;19.70;68.70
1129;DHT22;553;51.038;7.216;2023-04-30T14:01:07;19.70;68.70
1129;DHT22;553;51.038;7.216;2023-04-30T14:03:35;19.60;68.90
1129;DHT22;553;51.038;7.216;2023-04-30T14:06:01;19.70;69.40
1129;DHT22;553;51.038;7.216;2023-04-30T14:08:28;19.60;68.90
1129;DHT22;553;51.038;7.216;2023-04-30T14:10:57;19.60;69.60
1129;DHT22;553;51.038;7.216;2023-04-30T14:13:24;19.70;69.40
1129;DHT22;553;51.038;7.216;2023-04-30T14:15:51;19.70;70.20
1129;DHT22;553;51.038;7.216;2023-04-30T14:18:17;19.60;71.70
1129;DHT22;553;51.038;7.216;2023-04-30T14:20:48;19.60;72.80
1129;DHT22;553;51.038;7.216;2023-04-30T14:23:14;19.60;70.80
1129;DHT22;553;51.038;7.216;2023-04-30T14:25:41;19.30;71.10
1129;DHT22;553;51.038;7.216;2023-04-30T14:28:08;19.10;71.90
1129;DHT22;553;51.038;7.216;2023-04-30T14:30:34;19.10;72.40
1129;DHT22;553;51.038;7.216;2023-04-30T14:33:01;19.00;71.60
1129;DHT22;553;51.038;7.216;2023-04-30T14:35:28;18.90;72.20
1129;DHT22;553;51.038;7.216;2023-04-30T14:37:55;18.90;71.70
1129;DHT22;553;51.038;7.216;2023-04-30T14:40:22;18.90;72.20
1129;DHT22;553;51.038;7.216;2023-04-30T14:42:49;19.00;72.30
1129;DHT22;553;51.038;7.216;2023-04-30T14:45:15;19.10;70.90
1129;DHT22;553;51.038;7.216;2023-04-30T14:47:42;19.20;70.70
1129;DHT22;553;51.038;7.216;2023-04-30T14:50:09;19.20;71.40
1129;DHT22;553;51.038;7.216;2023-04-30T14:52:37;19.20;72.20
1129;DHT22;553;51.038;7.216;2023-04-30T14:55:04;19.30;71.80
1129;DHT22;553;51.038;7.216;2023-04-30T14:57:31;19.40;71.60
1129;DHT22;553;51.038;7.216;2023-04-30T14:59:59;19.40;70.20
1129;DHT22;553;51.038;7.216;2023-04-30T15:02:26;19.20;70.80
1129;DHT22;553;51.038;7.216;2023-04-30T15:04:53;19.10;71.40
1129;DHT22;553;51.038;7.216;2023-04-30T15:07:20;19.10;73.50
1129;DHT22;553;51.038;7.216;2023-04-30T15:09:46;19.00;72.90
1129;DHT22;553;51.038;7.216;2023-04-30T15:12:13;18.80;73.30
1129;DHT22;553;51.038;7.216;2023-04-30T15:14:40;18.80;74.40
1129;DHT22;553;51.038;7.216;2023-04-30T15:17:07;18.70;74.50
1129;DHT22;553;51.038;7.216;2023-04-30T15:19:33;18.70;75.50
1129;DHT22;553;51.038;7.216;2023-04-30T15:22:00;18.60;75.00
1129;DHT22;553;51.038;7.216;2023-04-30T15:24:27;18.70;76.30
1129;DHT22;553;51.038;7.216;2023-04-30T15:26:54;18.70;75.40
1129;DHT22;553;51.038;7.216;2023-04-30T15:29:21;18.90;74.90
1129;DHT22;553;51.038;7.216;2023-04-30T15:31:47;18.90;74.60
1129;DHT22;553;51.038;7.216;2023-04-30T15:34:17;18.90;74.30
1129;DHT22;553;51.038;7.216;2023-04-30T15:36:44;18.90;73.40
1129;DHT22;553;51.038;7.216;2023-04-30T15:39:11;19.00;73.10
1129;DHT22;553;51.038;7.216;2023-04-30T15:41:37;19.10;72.40
1129;DHT22;553;51.038;7.216;2023-04-30T15:44:04;19.10;72.40
1129;DHT22;553;51.038;7.216;2023-04-30T15:46:31;19.00;73.10
1129;DHT22;553;51.038;7.216;2023-04-30T15:48:59;19.00;72.70
1129;DHT22;553;51.038;7.216;2023-04-30T15:51:26;18.80;73.20
1129;DHT22;553;51.038;7.216;2023-04-30T15:53:54;18.70;73.40
1129;DHT22;553;51.038;7.216;2023-04-30T15:56:21;18.50;74.00
1129;DHT22;553;51.038;7.216;2023-04-30T15:58:52;18.40;74.30
1129;DHT22;553;51.038;7.216;2023-04-30T16:01:19;18.40;74.20
1129;DHT22;553;51.038;7.216;2023-04-30T16:03:46;18.40;74.50
1129;DHT22;553;51.038;7.216;2023-04-30T16:06:14;18.40;74.60
1129;DHT22;553;51.038;7.216;2023-04-30T16:08:42;18.40;75.60
1129;DHT22;553;51.038;7.216;2023-04-30T16:11:09;18.40;75.30
1129;DHT22;553;51.038;7.216;2023-04-30T16:13:37;18.40;75.80
1129;DHT22;553;51.038;7.216;2023-04-30T16:16:04;18.40;76.30
1129;DHT22;553;51.038;7.216;2023-04-30T16:18:34;18.40;75.70
1129;DHT22;553;51.038;7.216;2023-04-30T16:21:00;18.50;76.50
1129;DHT22;553;51.038;7.216;2023-04-30T16:23:27;18.60;76.40
1129;DHT22;553;51.038;7.216;2023-04-30T16:25:54;18.70;75.40
1129;DHT22;553;51.038;7.216;2023-04-30T16:28:21;18.80;75.50
1129;DHT22;553;51.038;7.216;2023-04-30T16:30:49;18.80;75.30
1129;DHT22;553;51.038;7.216;2023-04-30T16:33:15;18.80;74.20
1129;DHT22;553;51.038;7.216;2023-04-30T16:35:42;18.70;74.60
1129;DHT22;553;51.038;7.216;2023-04-30T16:38:09;18.70;74.50
1129;DHT22;553;51.038;7.216;2023-04-30T16:40:36;18.70;74.30
1129;DHT22;553;51.038;7.216;2023-04-30T16:43:02;18.70;73.80
1129;DHT22;553;51.038;7.216;2023-04-30T16:45:31;18.70;74.20